createdAt,value
2018-04-07T00:01:41.848Z,2.87
2018-04-07T00:04:09.841Z,2.70
2018-04-07T00:06:37.603Z,3.07
2018-04-07T00:09:05.915Z,3.07
2018-04-07T00:11:33.451Z,4.03
2018-04-07T00:14:01.828Z,2.80
2018-04-07T00:16:29.592Z,2.53
2018-04-07T00:18:57.351Z,2.77
2018-04-07T00:21:25.131Z,3.83
2018-04-07T00:23:53.486Z,2.10
2018-04-07T00:26:20.983Z,2.70
2018-04-07T00:28:48.512Z,3.47
2018-04-07T00:31:16.152Z,3.03
2018-04-07T00:33:43.768Z,2.67
2018-04-07T00:36:12.028Z,2.67
2018-04-07T00:38:39.772Z,2.80
2018-04-07T00:41:07.624Z,3.60
2018-04-07T00:43:35.128Z,2.50
2018-04-07T00:46:03.387Z,3.53
2018-04-07T00:48:30.891Z,2.30
2018-04-07T00:50:58.572Z,2.57
2018-04-07T00:53:26.063Z,2.27
2018-04-07T00:55:53.787Z,2.77
2018-04-07T00:58:21.284Z,2.60
2018-04-07T01:00:48.792Z,2.00
2018-04-07T01:03:16.466Z,2.50
2018-04-07T01:05:43.984Z,2.30
2018-04-07T01:08:11.687Z,3.40
2018-04-07T01:10:39.187Z,2.40
2018-04-07T01:13:06.704Z,1.67
2018-04-07T01:15:34.200Z,2.10
2018-04-07T01:18:02.464Z,2.00
2018-04-07T01:20:30.200Z,2.30
2018-04-07T01:22:57.707Z,3.40
2018-04-07T01:25:25.422Z,2.30
2018-04-07T01:27:53.184Z,2.63
2018-04-07T01:30:20.953Z,2.10
2018-04-07T01:32:48.728Z,2.30
2018-04-07T01:35:16.471Z,2.20
2018-04-07T01:37:44.017Z,2.67
2018-04-07T01:40:12.976Z,2.20
2018-04-07T01:42:40.480Z,2.40
2018-04-07T01:45:07.992Z,2.30
2018-04-07T01:47:35.495Z,1.87
2018-04-07T01:50:03.039Z,1.80
2018-04-07T01:52:30.823Z,2.10
2018-04-07T01:54:58.333Z,2.17
2018-04-07T01:57:26.231Z,2.23
2018-04-07T01:59:53.825Z,2.63
2018-04-07T02:02:21.320Z,2.03
2018-04-07T02:04:49.751Z,1.73
2018-04-07T02:07:17.862Z,2.20
2018-04-07T02:09:46.125Z,2.20
2018-04-07T02:12:13.626Z,1.67
2018-04-07T02:14:41.128Z,1.90
2018-04-07T02:17:08.723Z,1.97
2018-04-07T02:19:36.228Z,2.00
2018-04-07T02:22:03.721Z,2.70
2018-04-07T02:24:31.345Z,2.10
2018-04-07T02:26:58.925Z,1.90
2018-04-07T02:29:26.630Z,2.07
2018-04-07T02:31:54.125Z,1.77
2018-04-07T02:34:21.654Z,1.60
2018-04-07T02:36:49.300Z,2.27
2018-04-07T02:39:16.817Z,2.50
2018-04-07T02:41:44.448Z,1.73
2018-04-07T02:44:11.947Z,2.23
2018-04-07T02:46:39.494Z,1.87
2018-04-07T02:49:06.979Z,2.30
2018-04-07T02:51:34.684Z,2.50
2018-04-07T02:54:03.077Z,2.00
2018-04-07T02:56:30.583Z,2.83
2018-04-07T02:58:58.093Z,2.00
2018-04-07T03:01:25.739Z,2.07
2018-04-07T03:03:53.824Z,2.70
2018-04-07T03:06:21.330Z,2.30
2018-04-07T03:08:49.056Z,2.20
2018-04-07T03:11:16.550Z,2.80
2018-04-07T03:13:44.248Z,1.70
2018-04-07T03:16:11.730Z,1.97
2018-04-07T03:18:39.219Z,2.33
2018-04-07T03:21:06.732Z,2.20
2018-04-07T03:23:34.233Z,2.47
2018-04-07T03:26:01.792Z,2.50
2018-04-07T03:28:29.302Z,2.83
2018-04-07T03:30:56.904Z,2.40
2018-04-07T03:33:25.461Z,2.93
2018-04-07T03:35:53.523Z,3.33
2018-04-07T03:38:21.023Z,2.50
2018-04-07T03:40:48.726Z,2.10
2018-04-07T03:43:16.503Z,2.70
2018-04-07T03:45:44.003Z,2.73
2018-04-07T03:48:11.500Z,2.30
2018-04-07T03:50:38.996Z,2.23
2018-04-07T03:53:07.552Z,2.73
2018-04-07T03:55:35.311Z,2.23
2018-04-07T03:58:03.731Z,2.70
2018-04-07T04:00:31.265Z,3.07
2018-04-07T04:02:58.874Z,1.97
2018-04-07T04:05:26.396Z,2.70
2018-04-07T04:07:53.908Z,2.70
2018-04-07T04:10:21.431Z,2.17
2018-04-07T04:12:49.968Z,2.30
2018-04-07T04:15:17.727Z,2.67
2018-04-07T04:17:45.283Z,2.60
2018-04-07T04:20:12.771Z,2.60
2018-04-07T04:22:40.304Z,2.57
2018-04-07T04:25:07.859Z,3.03
2018-04-07T04:27:35.582Z,3.20
2018-04-07T04:30:03.452Z,3.73
2018-04-07T04:32:30.939Z,3.80
2018-04-07T04:34:58.436Z,3.00
2018-04-07T04:37:26.170Z,3.00
2018-04-07T04:39:53.781Z,2.40
2018-04-07T04:42:21.300Z,3.00
2018-04-07T04:44:48.799Z,2.50
2018-04-07T04:47:16.480Z,2.47
2018-04-07T04:49:43.987Z,2.33
2018-04-07T04:52:12.162Z,2.23
2018-04-07T04:54:39.795Z,3.17
2018-04-07T04:57:07.671Z,2.20
2018-04-07T04:59:35.197Z,2.77
2018-04-07T05:02:03.104Z,3.27
2018-04-07T05:04:30.617Z,2.40
2018-04-07T05:06:58.284Z,3.00
2018-04-07T05:09:26.090Z,2.47
2018-04-07T05:11:53.824Z,2.57
2018-04-07T05:14:22.151Z,2.60
2018-04-07T05:16:49.671Z,2.93
2018-04-07T05:19:17.162Z,2.60
2018-04-07T05:21:44.678Z,2.27
2018-04-07T05:24:12.726Z,3.30
2018-04-07T05:26:40.228Z,3.30
2018-04-07T05:29:07.725Z,3.27
2018-04-07T05:31:35.348Z,2.43
2018-04-07T05:34:02.847Z,2.60
2018-04-07T05:36:30.372Z,2.70
2018-04-07T05:38:57.877Z,2.97
2018-04-07T05:41:25.477Z,4.30
2018-04-07T05:43:53.449Z,2.17
2018-04-07T05:46:20.996Z,2.93
2018-04-07T05:48:48.724Z,2.60
2018-04-07T05:51:16.756Z,3.13
2018-04-07T05:53:45.128Z,3.10
2018-04-07T05:56:12.676Z,3.10
2018-04-07T05:58:40.244Z,2.23
2018-04-07T06:01:07.844Z,5.67
2018-04-07T06:03:35.515Z,5.27
2018-04-07T06:06:03.219Z,3.33
2018-04-07T06:08:31.423Z,3.60
2018-04-07T06:10:58.924Z,2.33
2018-04-07T06:13:26.704Z,3.30
2018-04-07T06:15:54.196Z,3.03
2018-04-07T06:18:21.725Z,3.00
2018-04-07T06:20:49.220Z,3.40
2018-04-07T06:23:17.154Z,3.47
2018-04-07T06:25:44.983Z,3.93
2018-04-07T06:28:12.471Z,3.00
2018-04-07T06:30:40.129Z,3.10
2018-04-07T06:33:07.883Z,3.23
2018-04-07T06:35:35.376Z,2.87
2018-04-07T06:38:02.896Z,3.40
2018-04-07T06:40:30.404Z,5.03
2018-04-07T06:42:58.667Z,3.83
2018-04-07T06:45:26.352Z,2.97
2018-04-07T06:47:53.867Z,3.20
2018-04-07T06:50:22.880Z,3.23
2018-04-07T06:52:51.080Z,4.10
2018-04-07T06:55:18.639Z,3.97
2018-04-07T06:57:46.136Z,2.80
2018-04-07T07:00:13.638Z,2.90
2018-04-07T07:02:41.324Z,3.00
2018-04-07T07:05:08.824Z,3.43
2018-04-07T07:07:36.593Z,3.90
2018-04-07T07:10:04.336Z,3.27
2018-04-07T07:12:32.719Z,5.67
2018-04-07T07:15:00.220Z,3.70
2018-04-07T07:17:28.144Z,4.17
2018-04-07T07:19:55.640Z,3.80
2018-04-07T07:22:23.256Z,6.23
2018-04-07T07:24:50.782Z,3.40
2018-04-07T07:27:18.688Z,3.90
2018-04-07T07:29:46.308Z,3.20
2018-04-07T07:32:14.848Z,3.40
2018-04-07T07:34:42.589Z,3.93
2018-04-07T07:37:10.369Z,4.40
2018-04-07T07:39:37.871Z,4.90
2018-04-07T07:42:05.988Z,4.03
2018-04-07T07:44:33.639Z,3.80
2018-04-07T07:47:01.709Z,3.87
2018-04-07T07:49:29.216Z,4.27
2018-04-07T07:51:57.624Z,4.33
2018-04-07T07:54:25.352Z,4.33
2018-04-07T07:56:53.467Z,5.43
2018-04-07T07:59:21.164Z,4.77
2018-04-07T08:01:48.931Z,3.60
2018-04-07T08:04:17.600Z,4.27
2018-04-07T08:06:46.060Z,5.63
2018-04-07T08:09:13.747Z,6.30
2018-04-07T08:11:41.604Z,9.33
2018-04-07T08:14:09.259Z,12.17
2018-04-07T08:16:37.027Z,5.17
2018-04-07T08:25:00.451Z,4.97
2018-04-07T08:27:28.016Z,4.40
2018-04-07T08:29:55.514Z,4.50
2018-04-07T08:32:23.199Z,4.57
2018-04-07T08:34:50.735Z,5.00
2018-04-07T08:37:18.249Z,5.13
2018-04-07T08:39:47.286Z,6.33
2018-04-07T08:42:15.579Z,6.07
2018-04-07T08:44:43.272Z,5.90
2018-04-07T08:47:11.031Z,8.60
2018-04-07T08:49:38.557Z,9.23
2018-04-07T08:52:06.251Z,6.97
2018-04-07T08:54:33.773Z,7.00
2018-04-07T08:57:01.461Z,10.03
2018-04-07T08:59:28.963Z,5.10
2018-04-07T09:01:56.475Z,5.67
2018-04-07T09:04:24.132Z,4.90
2018-04-07T09:06:51.915Z,5.13
2018-04-07T09:09:19.679Z,5.80
2018-04-07T09:11:47.199Z,4.87
2018-04-07T09:14:14.914Z,8.03
2018-04-07T09:16:42.431Z,5.63
2018-04-07T09:19:10.000Z,6.67
2018-04-07T09:21:37.585Z,6.43
2018-04-07T09:24:05.342Z,6.07
2018-04-07T09:26:32.878Z,5.83
2018-04-07T09:29:00.391Z,4.90
2018-04-07T09:31:28.875Z,5.97
2018-04-07T09:33:56.432Z,6.13
2018-04-07T09:36:24.347Z,8.00
2018-04-07T09:38:51.860Z,6.73
2018-04-07T09:41:19.367Z,7.50
2018-04-07T09:43:46.890Z,6.33
2018-04-07T09:46:14.576Z,10.13
2018-04-07T09:48:42.091Z,9.40
2018-04-07T09:51:10.144Z,9.20
2018-04-07T09:53:37.664Z,10.27
2018-04-07T09:56:05.326Z,7.23
2018-04-07T09:58:33.456Z,14.20
2018-04-07T10:01:00.981Z,8.00
2018-04-07T10:03:28.486Z,5.40
2018-04-07T10:05:56.759Z,6.20
2018-04-07T10:08:24.285Z,5.77
2018-04-07T10:10:52.119Z,5.60
2018-04-07T10:13:19.710Z,7.10
2018-04-07T10:15:47.456Z,8.40
2018-04-07T10:18:15.002Z,6.00
2018-04-07T10:20:42.655Z,6.10
2018-04-07T10:23:10.439Z,6.17
2018-04-07T10:25:38.207Z,6.20
2018-04-07T10:28:05.750Z,5.70
2018-04-07T10:30:33.257Z,8.70
2018-04-07T10:33:01.521Z,8.20
2018-04-07T10:35:29.042Z,7.70
2018-04-07T10:37:56.550Z,6.70
2018-04-07T10:40:24.068Z,8.23
2018-04-07T10:42:51.571Z,6.77
2018-04-07T10:45:20.395Z,7.67
2018-04-07T10:47:48.108Z,6.33
2018-04-07T10:50:15.644Z,6.90
2018-04-07T10:52:43.202Z,7.27
2018-04-07T10:55:10.667Z,7.90
2018-04-07T10:57:38.192Z,6.77
2018-04-07T11:00:05.740Z,6.80
2018-04-07T11:02:33.238Z,7.37
2018-04-07T11:05:00.878Z,7.27
2018-04-07T11:07:28.375Z,8.80
2018-04-07T11:09:56.657Z,7.60
2018-04-07T11:12:24.168Z,7.83
2018-04-07T11:14:51.673Z,7.60
2018-04-07T11:17:19.184Z,7.43
2018-04-07T11:19:46.848Z,8.70
2018-04-07T11:22:14.620Z,7.47
2018-04-07T11:24:42.150Z,7.57
2018-04-07T11:27:09.723Z,10.60
2018-04-07T11:29:37.292Z,8.20
2018-04-07T11:32:05.055Z,7.37
2018-04-07T11:34:32.555Z,8.83
2018-04-07T11:37:00.278Z,7.87
2018-04-07T11:39:28.000Z,8.67
2018-04-07T11:41:55.502Z,7.90
2018-04-07T11:44:23.272Z,8.23
2018-04-07T11:46:51.023Z,8.00
2018-04-07T11:49:18.552Z,8.00
2018-04-07T11:51:46.061Z,8.80
2018-04-07T11:54:13.567Z,7.67
2018-04-07T11:56:41.795Z,7.87
2018-04-07T11:59:09.320Z,7.60
2018-04-07T12:01:36.830Z,8.37
2018-04-07T12:04:05.168Z,7.77
2018-04-07T12:06:32.798Z,8.03
2018-04-07T12:09:00.308Z,8.10
2018-04-07T12:11:27.868Z,8.57
2018-04-07T12:13:55.339Z,9.27
2018-04-07T12:16:23.624Z,7.00
2018-04-07T12:18:51.380Z,8.90
2018-04-07T12:21:19.113Z,9.40
2018-04-07T12:23:47.839Z,8.13
2018-04-07T12:26:15.422Z,8.40
2018-04-07T12:28:43.008Z,9.23
2018-04-07T12:31:10.511Z,8.37
2018-04-07T12:33:38.199Z,8.47
2018-04-07T12:36:05.757Z,7.50
2018-04-07T12:38:33.258Z,8.37
2018-04-07T12:41:00.900Z,8.70
2018-04-07T12:43:28.406Z,7.73
2018-04-07T12:45:56.133Z,7.60
2018-04-07T12:48:23.643Z,8.63
2018-04-07T12:50:51.972Z,9.17
2018-04-07T12:53:19.469Z,8.50
2018-04-07T12:55:47.193Z,7.47
2018-04-07T12:58:14.686Z,8.67
2018-04-07T13:00:42.980Z,7.63
2018-04-07T13:03:10.775Z,7.53
2018-04-07T13:05:38.288Z,8.10
2018-04-07T13:08:05.809Z,7.50
2018-04-07T13:10:33.447Z,9.10
2018-04-07T13:13:01.787Z,7.23
2018-04-07T13:15:29.306Z,7.90
2018-04-07T13:17:56.810Z,5.77
2018-04-07T13:20:24.324Z,7.47
2018-04-07T13:22:52.547Z,7.07
2018-04-07T13:25:20.063Z,7.67
2018-04-07T13:27:47.808Z,8.53
2018-04-07T13:30:15.334Z,8.20
2018-04-07T13:32:42.827Z,9.83
2018-04-07T13:35:10.475Z,8.10
2018-04-07T13:37:38.435Z,8.33
2018-04-07T13:40:05.991Z,8.73
2018-04-07T13:42:33.507Z,8.50
2018-04-07T13:45:01.419Z,8.63
2018-04-07T13:47:28.994Z,8.17
2018-04-07T13:49:56.503Z,8.67
2018-04-07T13:52:24.175Z,7.10
2018-04-07T13:54:51.983Z,7.47
2018-04-07T13:57:19.499Z,9.53
2018-04-07T13:59:47.013Z,7.33
2018-04-07T14:02:15.243Z,8.17
2018-04-07T14:04:42.751Z,9.00
2018-04-07T14:07:11.064Z,8.93
2018-04-07T14:09:38.574Z,9.37
2018-04-07T14:12:07.856Z,20.40
2018-04-07T14:14:35.623Z,8.30
2018-04-07T14:17:03.171Z,14.30
2018-04-07T14:19:30.820Z,12.13
2018-04-07T14:21:58.354Z,9.27
2018-04-07T14:24:25.855Z,11.10
2018-04-07T14:26:53.508Z,8.37
2018-04-07T14:29:21.062Z,11.20
2018-04-07T14:31:48.716Z,8.80
2018-04-07T14:34:16.228Z,9.37
2018-04-07T14:36:43.761Z,9.53
2018-04-07T14:39:11.264Z,9.10
2018-04-07T14:41:38.786Z,9.20
2018-04-07T14:44:06.910Z,8.37
2018-04-07T14:46:34.566Z,10.80
2018-04-07T14:49:02.064Z,7.30
2018-04-07T14:51:29.590Z,8.33
2018-04-07T14:53:57.092Z,8.83
2018-04-07T14:56:24.624Z,8.93
2018-04-07T14:58:52.185Z,9.77
2018-04-07T15:01:19.714Z,9.70
2018-04-07T15:03:47.223Z,11.63
2018-04-07T15:06:14.742Z,7.57
2018-04-07T15:08:42.510Z,9.63
2018-04-07T15:11:10.155Z,8.23
2018-04-07T15:13:37.954Z,8.80
2018-04-07T15:16:05.482Z,8.60
2018-04-07T15:18:32.998Z,9.90
2018-04-07T15:21:01.272Z,8.27
2018-04-07T15:23:28.983Z,9.50
2018-04-07T15:25:56.764Z,8.93
2018-04-07T15:28:24.283Z,7.80
2018-04-07T15:30:52.177Z,9.77
2018-04-07T15:33:19.695Z,9.13
2018-04-07T15:35:47.220Z,8.90
2018-04-07T15:38:14.737Z,10.00
2018-04-07T15:40:42.427Z,9.77
2018-04-07T15:43:09.943Z,9.83
2018-04-07T15:45:37.822Z,13.13
2018-04-07T15:48:05.429Z,10.17
2018-04-07T15:50:33.040Z,10.80
2018-04-07T15:53:00.640Z,9.73
2018-04-07T15:55:28.382Z,9.77
2018-04-07T15:57:55.916Z,10.63
2018-04-07T16:00:23.594Z,10.67
2018-04-07T16:02:51.136Z,10.70
2018-04-07T16:05:18.642Z,12.93
2018-04-07T16:07:46.275Z,11.87
2018-04-07T16:10:13.784Z,9.43
2018-04-07T16:12:41.317Z,10.93
2018-04-07T16:15:08.938Z,11.60
2018-04-07T16:17:36.459Z,9.17
2018-04-07T16:20:05.339Z,9.47
2018-04-07T16:22:32.856Z,10.97
2018-04-07T16:25:00.641Z,29.50
2018-04-07T16:27:28.242Z,11.03
2018-04-07T16:29:56.517Z,11.10
2018-04-07T16:32:24.536Z,11.00
2018-04-07T16:34:52.057Z,10.70
2018-04-07T16:37:19.590Z,11.70
2018-04-07T16:39:48.277Z,11.00
2018-04-07T16:42:15.793Z,11.37
2018-04-07T16:44:43.664Z,13.63
2018-04-07T16:47:11.198Z,11.60
2018-04-07T16:49:38.718Z,9.90
2018-04-07T16:52:07.003Z,12.27
2018-04-07T16:54:34.540Z,12.40
2018-04-07T16:57:02.196Z,10.70
2018-04-07T16:59:31.215Z,11.10
2018-04-07T17:01:58.935Z,11.27
2018-04-07T17:04:28.874Z,11.77
2018-04-07T17:06:57.887Z,13.10
2018-04-07T17:09:25.432Z,12.33
2018-04-07T17:11:53.711Z,11.13
2018-04-07T17:14:21.408Z,10.97
2018-04-07T17:16:48.920Z,11.17
2018-04-07T17:19:16.691Z,10.63
2018-04-07T17:21:44.156Z,11.50
2018-04-07T17:24:11.663Z,12.97
2018-04-07T17:26:39.342Z,11.20
2018-04-07T17:29:06.881Z,11.70
2018-04-07T17:31:34.528Z,11.50
2018-04-07T17:34:02.154Z,11.90
2018-04-07T17:36:30.459Z,11.20
2018-04-07T17:38:57.971Z,11.57
2018-04-07T17:41:26.274Z,20.97
2018-04-07T17:43:53.810Z,14.87
2018-04-07T17:46:21.416Z,11.13
2018-04-07T17:48:48.936Z,11.07
2018-04-07T17:51:16.655Z,12.07
2018-04-07T17:53:44.440Z,14.47
2018-04-07T17:56:11.954Z,10.70
2018-04-07T17:58:39.504Z,11.80
2018-04-07T18:01:07.104Z,11.37
2018-04-07T18:03:34.633Z,13.07
2018-04-07T18:06:02.153Z,12.17
2018-04-07T18:08:30.444Z,11.57
2018-04-07T18:10:59.054Z,11.93
2018-04-07T18:13:26.571Z,11.30
2018-04-07T18:15:54.075Z,9.70
2018-04-07T18:18:21.605Z,11.27
2018-04-07T18:20:49.163Z,10.37
2018-04-07T18:23:16.687Z,10.57
2018-04-07T18:25:44.205Z,9.97
2018-04-07T18:28:11.732Z,11.33
2018-04-07T18:30:39.317Z,11.23
2018-04-07T18:33:06.843Z,11.90
2018-04-07T18:35:34.571Z,11.10
2018-04-07T18:38:02.112Z,11.50
2018-04-07T18:40:29.623Z,10.67
2018-04-07T18:42:57.907Z,10.97
2018-04-07T18:45:25.588Z,14.60
2018-04-07T18:47:53.112Z,12.73
2018-04-07T18:50:20.814Z,11.40
2018-04-07T18:52:48.362Z,11.13
2018-04-07T18:55:15.900Z,10.10
2018-04-07T18:57:43.439Z,9.87
2018-04-07T19:00:10.960Z,36.10
2018-04-07T19:02:38.480Z,12.67
2018-04-07T19:05:06.202Z,12.00
2018-04-07T19:07:33.723Z,12.10
2018-04-07T19:10:01.259Z,15.87
2018-04-07T19:12:30.414Z,12.13
2018-04-07T19:14:58.660Z,12.10
2018-04-07T19:17:26.160Z,20.30
2018-04-07T19:19:53.682Z,13.60
2018-04-07T19:22:21.190Z,12.17
2018-04-07T19:24:48.892Z,12.50
2018-04-07T19:27:17.188Z,11.50
2018-04-07T19:29:44.708Z,12.13
2018-04-07T19:32:12.211Z,13.27
2018-04-07T19:34:39.752Z,14.50
2018-04-07T19:37:07.420Z,11.53
2018-04-07T19:39:34.939Z,12.43
2018-04-07T19:42:02.481Z,12.57
2018-04-07T19:44:30.759Z,14.43
2018-04-07T19:46:58.440Z,12.40
2018-04-07T19:49:25.968Z,11.97
2018-04-07T19:51:53.472Z,13.73
2018-04-07T19:54:21.173Z,14.20
2018-04-07T19:56:48.694Z,13.67
2018-04-07T19:59:16.392Z,12.77
2018-04-07T20:01:43.901Z,13.93
2018-04-07T20:04:11.591Z,12.73
2018-04-07T20:06:39.179Z,16.73
2018-04-07T20:09:06.662Z,16.07
2018-04-07T20:11:34.962Z,14.40
2018-04-07T20:14:02.659Z,13.03
2018-04-07T20:16:30.187Z,12.80
2018-04-07T20:18:57.753Z,12.43
2018-04-07T20:21:25.260Z,11.70
2018-04-07T20:23:52.776Z,11.97
2018-04-07T20:26:20.299Z,11.63
2018-04-07T20:28:48.000Z,11.40
2018-04-07T20:31:15.543Z,10.67
2018-04-07T20:33:43.076Z,11.63
2018-04-07T20:36:11.351Z,10.70
2018-04-07T20:38:38.987Z,12.67
2018-04-07T20:41:06.528Z,11.10
2018-04-07T20:43:34.292Z,12.30
2018-04-07T20:46:01.804Z,11.73
2018-04-07T20:48:29.495Z,12.97
2018-04-07T20:53:30.880Z,12.50
2018-04-07T20:55:58.420Z,11.53
2018-04-07T20:58:26.088Z,12.50
2018-04-07T21:00:53.612Z,12.50
2018-04-07T21:03:21.305Z,13.47
2018-04-07T21:05:48.821Z,11.80
2018-04-07T21:08:16.359Z,11.37
2018-04-07T21:10:44.644Z,13.70
2018-04-07T21:13:12.370Z,11.90
2018-04-07T21:15:40.134Z,11.60
2018-04-07T21:18:07.638Z,11.27
2018-04-07T21:20:35.182Z,12.50
2018-04-07T21:23:03.509Z,11.90
2018-04-07T21:25:31.171Z,11.93
2018-04-07T21:27:59.343Z,12.60
2018-04-07T21:30:26.869Z,13.00
2018-04-07T21:32:54.437Z,13.40
2018-04-07T21:35:21.955Z,12.10
2018-04-07T21:37:50.389Z,13.77
2018-04-07T21:40:17.912Z,13.03
2018-04-07T21:42:45.531Z,12.63
2018-04-07T21:45:13.052Z,12.63
2018-04-07T21:47:40.882Z,13.27
2018-04-07T21:50:10.064Z,12.30
2018-04-07T21:52:37.597Z,13.33
2018-04-07T21:55:05.167Z,13.03
2018-04-07T21:57:32.691Z,13.00
2018-04-07T22:00:00.208Z,11.80
2018-04-07T22:02:27.928Z,12.97
2018-04-07T22:04:55.446Z,12.40
2018-04-07T22:07:22.964Z,12.63
2018-04-07T22:09:50.515Z,13.07
2018-04-07T22:12:18.042Z,14.03
2018-04-07T22:14:45.552Z,12.37
2018-04-07T22:17:13.089Z,13.83
2018-04-07T22:19:41.622Z,14.07
2018-04-07T22:22:09.139Z,13.60
2018-04-07T22:24:36.664Z,13.30
2018-04-07T22:27:04.341Z,12.80
2018-04-07T22:29:31.880Z,13.53
2018-04-07T22:31:59.403Z,11.60
2018-04-07T22:34:27.679Z,12.03
2018-04-07T22:36:55.396Z,12.00
2018-04-07T22:39:22.926Z,11.93
2018-04-07T22:41:50.440Z,12.47
2018-04-07T22:44:17.974Z,12.97
2018-04-07T22:46:45.506Z,12.10
2018-04-07T22:49:13.003Z,12.60
2018-04-07T22:51:40.751Z,15.10
2018-04-07T22:54:08.511Z,13.50
2018-04-07T22:56:36.042Z,13.13
2018-04-07T22:59:03.555Z,13.67
2018-04-07T23:01:31.191Z,13.60
2018-04-07T23:03:58.704Z,13.70
2018-04-07T23:06:26.424Z,13.97
2018-04-07T23:08:54.675Z,13.17
2018-04-07T23:11:22.191Z,15.90
2018-04-07T23:13:49.707Z,13.63
2018-04-07T23:16:17.232Z,12.80
2018-04-07T23:18:44.737Z,13.77
2018-04-07T23:21:12.271Z,14.80
2018-04-07T23:23:39.783Z,15.00
2018-04-07T23:26:07.325Z,13.20
2018-04-07T23:28:34.829Z,13.80
2018-04-07T23:31:02.947Z,13.40
2018-04-07T23:33:30.503Z,13.30
2018-04-07T23:35:59.012Z,14.17
2018-04-07T23:38:26.538Z,13.60
2018-04-07T23:40:54.158Z,13.63
2018-04-07T23:43:21.673Z,14.37
2018-04-07T23:45:49.195Z,13.67
2018-04-07T23:48:16.827Z,14.07
2018-04-07T23:50:44.364Z,13.97
2018-04-07T23:53:11.872Z,15.40
2018-04-07T23:55:39.391Z,13.10
2018-04-07T23:58:06.913Z,13.13
